Time;durP1;ratioP1;P1;durP2;ratioP2;P2;SDS_P1;SDS_P2;PMS_P1;PMS_P2;Temp;Humidity;BMP_temperature;BMP_pressure;BME280_temperature;BME280_humidity;BME280_pressure;Samples;Min_cycle;Max_cycle;Signal;HPM_P1;HPM_P2
2023/01/06 00:00:37;;;;;;;1.70;1.60;;;18.20;43.10;;;;;;5019482;28;20815;-63
2023/01/06 00:03:02;;;;;;;1.57;1.30;;;18.20;43.10;;;;;;5017420;28;20681;-65
2023/01/06 00:05:29;;;;;;;1.40;1.30;;;18.20;43.10;;;;;;5014153;28;20443;-63
2023/01/06 00:07:54;;;;;;;1.23;1.10;;;18.20;43.10;;;;;;5017065;28;21075;-63
2023/01/06 00:10:20;;;;;;;1.97;1.10;;;18.20;43.10;;;;;;5016917;28;20460;-65
2023/01/06 00:12:47;;;;;;;1.33;1.23;;;18.20;43.10;;;;;;5013965;28;20215;-63
2023/01/06 00:15:15;;;;;;;1.77;1.47;;;18.20;43.10;;;;;;4996591;28;20463;-64
2023/01/06 00:17:40;;;;;;;1.60;1.50;;;18.20;43.10;;;;;;5015355;28;20483;-65
2023/01/06 00:20:07;;;;;;;1.50;1.30;;;18.20;43.10;;;;;;5018609;28;20451;-63
2023/01/06 00:22:33;;;;;;;1.20;1.10;;;18.20;43.10;;;;;;5014396;28;20605;-64
2023/01/06 00:24:58;;;;;;;1.27;1.17;;;18.20;43.10;;;;;;5018154;28;20434;-64
2023/01/06 00:27:24;;;;;;;2.10;1.20;;;18.20;43.10;;;;;;5017116;28;20218;-65
2023/01/06 00:29:49;;;;;;;2.40;1.20;;;18.20;43.10;;;;;;5018507;28;20220;-62
2023/01/06 00:32:15;;;;;;;1.50;1.30;;;18.20;43.10;;;;;;5018742;28;20643;-65
2023/01/06 00:34:41;;;;;;;1.97;1.30;;;18.20;43.10;;;;;;5012668;28;20296;-63
2023/01/06 00:37:07;;;;;;;1.30;1.10;;;18.20;43.10;;;;;;5013735;28;20452;-66
2023/01/06 00:39:32;;;;;;;1.90;1.20;;;18.20;43.10;;;;;;5015724;28;20635;-69
2023/01/06 00:42:04;;;;;;;1.30;1.20;;;18.20;43.10;;;;;;5017166;28;20623;-67
2023/01/06 00:44:31;;;;;;;1.20;1.10;;;18.20;43.10;;;;;;5015636;28;20243;-65
2023/01/06 00:46:57;;;;;;;1.40;1.30;;;18.20;43.90;;;;;;5015115;28;20446;-62
2023/01/06 00:49:22;;;;;;;1.30;1.20;;;18.20;43.10;;;;;;5016045;28;21225;-63
2023/01/06 00:51:48;;;;;;;1.57;1.47;;;18.20;43.10;;;;;;5017316;28;20231;-65
2023/01/06 00:54:14;;;;;;;1.30;1.20;;;18.20;43.80;;;;;;5020070;28;20242;-64
2023/01/06 00:56:42;;;;;;;1.10;1.00;;;18.20;43.10;;;;;;5014777;28;20218;-66
2023/01/06 00:59:09;;;;;;;1.20;1.10;;;18.20;43.10;;;;;;5014754;28;21011;-63
2023/01/06 01:01:35;;;;;;;1.30;1.20;;;18.20;43.10;;;;;;5015732;28;20472;-63
2023/01/06 01:04:01;;;;;;;1.40;1.30;;;18.20;43.10;;;;;;5020698;28;20547;-66
2023/01/06 01:06:26;;;;;;;1.20;1.10;;;18.20;43.10;;;;;;5018676;28;20450;-66
2023/01/06 01:08:57;;;;;;;1.30;1.20;;;18.20;43.10;;;;;;5014434;28;20222;-69
2023/01/06 01:14:09;;;;;;;1.10;1.00;;;18.20;43.10;;;;;;5019448;28;21084;-63
2023/01/06 01:16:34;;;;;;;1.30;1.10;;;18.20;43.10;;;;;;5019263;28;20471;-69
2023/01/06 01:19:00;;;;;;;1.27;1.17;;;18.20;43.10;;;;;;5019401;28;20431;-63
2023/01/06 01:21:26;;;;;;;0.90;0.90;;;18.20;43.10;;;;;;5017163;28;20274;-63
2023/01/06 01:23:51;;;;;;;1.13;1.03;;;18.20;43.10;;;;;;5019219;28;20219;-63
2023/01/06 01:26:17;;;;;;;0.90;0.90;;;18.20;43.10;;;;;;5018096;28;20673;-64
2023/01/06 01:28:43;;;;;;;1.30;1.10;;;18.20;43.10;;;;;;5019334;28;20246;-66
2023/01/06 01:31:08;;;;;;;1.10;1.00;;;18.20;43.30;;;;;;5022243;28;20234;-63
2023/01/06 01:33:34;;;;;;;1.40;1.30;;;18.20;43.10;;;;;;5016087;28;20281;-65
2023/01/06 01:36:14;;;;;;;1.10;1.00;;;18.20;43.10;;;;;;5019096;28;20298;-64
2023/01/06 01:38:39;;;;;;;1.20;1.10;;;18.20;43.10;;;;;;5018178;28;20716;-69
2023/01/06 01:41:07;;;;;;;1.10;1.00;;;18.20;43.10;;;;;;5015606;28;20434;-66
2023/01/06 01:43:55;;;;;;;1.00;0.90;;;18.20;43.10;;;;;;5018592;28;20237;-62
2023/01/06 01:46:42;;;;;;;1.10;1.00;;;18.20;43.10;;;;;;5021119;28;20433;-63
2023/01/06 01:49:22;;;;;;;1.13;1.03;;;18.20;43.20;;;;;;5021392;28;20459;-63
2023/01/06 01:51:50;;;;;;;1.40;1.20;;;18.20;43.10;;;;;;5018880;28;20521;-63
2023/01/06 01:54:24;;;;;;;1.97;1.20;;;18.20;43.20;;;;;;5019592;28;20768;-64
2023/01/06 01:56:57;;;;;;;1.10;1.00;;;18.20;43.20;;;;;;5018081;28;20964;-66
2023/01/06 01:59:27;;;;;;;1.10;1.00;;;18.20;43.20;;;;;;5017562;28;20942;-65
2023/01/06 02:01:53;;;;;;;1.30;1.00;;;18.20;43.20;;;;;;5018175;28;20441;-69
2023/01/06 02:04:20;;;;;;;1.60;1.50;;;18.20;43.20;;;;;;5033157;22;20475;-93
2023/01/06 02:06:49;;;;;;;1.43;1.13;;;18.20;43.20;;;;;;5010962;28;20374;-94
2023/01/06 02:14:47;;;;;;;1.27;1.17;;;18.20;43.30;;;;;;5020541;22;20452;-69
2023/01/06 02:17:37;;;;;;;1.20;0.90;;;18.20;43.30;;;;;;5019004;28;20998;-68
2023/01/06 02:20:29;;;;;;;1.53;0.90;;;18.20;43.20;;;;;;5019490;28;20226;-68
2023/01/06 02:22:57;;;;;;;1.13;1.03;;;18.20;43.20;;;;;;5010576;28;20414;-69
2023/01/06 02:25:31;;;;;;;0.97;0.87;;;18.20;43.30;;;;;;5017585;28;20423;-67
2023/01/06 02:28:12;;;;;;;1.63;1.00;;;18.20;43.30;;;;;;5019679;28;20449;-68
2023/01/06 02:31:15;;;;;;;1.10;1.00;;;18.20;43.40;;;;;;5018484;28;20537;-67
2023/01/06 02:33:53;;;;;;;1.10;1.00;;;18.20;43.20;;;;;;5017449;28;20439;-67
2023/01/06 02:36:28;;;;;;;1.07;0.97;;;18.20;43.30;;;;;;4995292;28;20455;-70
2023/01/06 02:39:00;;;;;;;1.03;0.93;;;18.20;43.40;;;;;;5016859;28;20430;-70
2023/01/06 02:41:32;;;;;;;2.60;1.00;;;18.20;43.30;;;;;;5018761;28;20462;-68
2023/01/06 02:44:03;;;;;;;1.20;1.00;;;18.20;43.40;;;;;;5017431;28;20456;-70
2023/01/06 02:47:06;;;;;;;1.03;0.93;;;18.20;43.40;;;;;;5017191;28;20481;-71
2023/01/06 02:49:43;;;;;;;1.20;0.90;;;18.20;43.30;;;;;;5016509;28;20450;-75
2023/01/06 02:52:19;;;;;;;1.00;0.90;;;18.20;43.40;;;;;;5020623;28;21081;-70
2023/01/06 02:55:06;;;;;;;0.80;0.70;;;18.20;43.40;;;;;;5017112;28;20436;-67
2023/01/06 02:57:40;;;;;;;1.20;1.10;;;18.20;43.40;;;;;;5015198;28;20467;-69
2023/01/06 03:00:10;;;;;;;0.97;0.83;;;18.20;43.30;;;;;;5019156;28;21083;-68
2023/01/06 03:02:40;;;;;;;0.93;0.80;;;18.20;44.20;;;;;;5017687;28;20462;-69
2023/01/06 03:05:08;;;;;;;0.80;0.80;;;18.20;43.50;;;;;;5017512;28;20444;-70
2023/01/06 03:07:36;;;;;;;1.17;1.07;;;18.20;43.50;;;;;;5017338;28;20931;-69
2023/01/06 03:10:04;;;;;;;1.30;1.07;;;18.20;43.50;;;;;;5017318;28;20462;-70
2023/01/06 03:12:40;;;;;;;1.20;0.90;;;18.20;43.50;;;;;;5016390;28;20450;-72
2023/01/06 03:15:07;;;;;;;1.03;0.90;;;18.20;43.40;;;;;;5017531;28;20961;-69
2023/01/06 03:17:32;;;;;;;1.10;1.00;;;18.20;43.40;;;;;;5017809;28;20426;-69
2023/01/06 03:19:58;;;;;;;1.00;0.90;;;18.20;43.40;;;;;;5017023;28;20460;-68
2023/01/06 03:22:25;;;;;;;0.83;0.83;;;18.20;43.50;;;;;;5017301;28;20313;-67
2023/01/06 03:24:51;;;;;;;1.20;1.00;;;18.20;43.50;;;;;;5021464;28;20298;-71
2023/01/06 03:27:20;;;;;;;0.90;0.90;;;18.20;43.50;;;;;;5018526;28;20427;-67
2023/01/06 03:29:46;;;;;;;1.90;0.83;;;18.20;43.50;;;;;;5021343;28;20451;-68
2023/01/06 03:32:39;;;;;;;1.00;0.90;;;18.20;43.50;;;;;;5021644;28;20448;-73
2023/01/06 03:35:27;;;;;;;0.93;0.90;;;18.20;43.50;;;;;;5020437;28;20666;-67
2023/01/06 03:38:21;;;;;;;0.80;0.80;;;18.20;43.40;;;;;;5023767;28;20464;-69
2023/01/06 03:40:53;;;;;;;0.80;0.80;;;18.20;43.50;;;;;;5021321;28;20623;-68
2023/01/06 03:43:35;;;;;;;1.00;0.90;;;18.20;43.60;;;;;;5021900;28;20427;-70
2023/01/06 03:46:15;;;;;;;1.10;1.00;;;18.20;43.50;;;;;;5020658;28;20490;-68
2023/01/06 03:49:02;;;;;;;1.33;1.10;;;18.10;43.50;;;;;;5020309;28;20432;-68
2023/01/06 03:51:59;;;;;;;0.90;0.90;;;18.20;43.50;;;;;;5021081;28;20464;-66
2023/01/06 03:54:43;;;;;;;1.10;1.00;;;18.20;43.60;;;;;;5023577;28;20434;-68
2023/01/06 03:57:20;;;;;;;1.00;0.90;;;18.20;43.60;;;;;;5021883;28;20768;-70
2023/01/06 04:00:11;;;;;;;1.10;1.00;;;18.20;43.60;;;;;;5021102;28;20412;-67
2023/01/06 04:02:38;;;;;;;0.90;0.90;;;18.10;43.50;;;;;;5020867;28;20840;-67
2023/01/06 04:05:12;;;;;;;1.00;0.90;;;18.20;43.50;;;;;;5023938;28;20554;-68
2023/01/06 04:07:39;;;;;;;1.20;1.10;;;18.10;43.50;;;;;;5022530;28;20535;-68
2023/01/06 04:10:05;;;;;;;0.90;0.90;;;18.20;43.50;;;;;;5022510;28;20418;-69
2023/01/06 04:12:37;;;;;;;4.57;1.00;;;18.20;43.60;;;;;;5020170;28;20477;-68
2023/01/06 04:15:04;;;;;;;0.80;0.77;;;18.20;43.50;;;;;;5022719;28;20446;-67
2023/01/06 04:17:29;;;;;;;0.90;0.80;;;18.10;43.40;;;;;;5021616;28;22544;-75
2023/01/06 04:19:55;;;;;;;1.00;0.90;;;18.20;43.60;;;;;;5021452;28;21038;-68
2023/01/06 04:22:20;;;;;;;0.80;0.70;;;18.20;43.50;;;;;;5023467;28;20211;-69
2023/01/06 04:24:46;;;;;;;1.00;0.90;;;18.20;43.60;;;;;;5022662;28;21024;-73
2023/01/06 04:27:11;;;;;;;1.10;1.00;;;18.20;43.60;;;;;;5020746;28;20234;-67
2023/01/06 04:29:37;;;;;;;1.30;1.00;;;18.20;43.60;;;;;;5021990;28;20577;-68
2023/01/06 04:32:03;;;;;;;0.80;0.80;;;18.20;43.50;;;;;;5021079;28;20828;-69
2023/01/06 04:34:29;;;;;;;0.83;0.83;;;18.20;43.50;;;;;;5019991;28;20222;-69
2023/01/06 04:36:54;;;;;;;0.80;0.80;;;18.20;43.50;;;;;;5020400;28;20290;-71
2023/01/06 04:39:20;;;;;;;0.90;0.80;;;18.20;43.50;;;;;;5020436;28;20875;-69
2023/01/06 04:41:45;;;;;;;0.70;0.70;;;18.20;43.60;;;;;;5018605;28;20903;-75
2023/01/06 04:44:11;;;;;;;0.80;0.80;;;18.20;43.60;;;;;;5021741;28;20683;-66
2023/01/06 04:46:36;;;;;;;1.43;0.70;;;18.20;43.60;;;;;;5020296;28;20238;-69
2023/01/06 04:49:02;;;;;;;1.07;0.97;;;18.20;43.50;;;;;;5020572;28;20238;-67
2023/01/06 04:51:28;;;;;;;1.17;0.90;;;18.20;43.60;;;;;;5019446;28;20250;-67
2023/01/06 04:53:54;;;;;;;1.10;1.00;;;18.20;43.50;;;;;;5021267;28;20321;-68
2023/01/06 04:56:20;;;;;;;1.00;0.93;;;18.20;43.50;;;;;;5020873;28;20224;-70
2023/01/06 04:58:45;;;;;;;1.20;1.00;;;18.20;43.40;;;;;;5018867;28;20690;-67
2023/01/06 05:01:12;;;;;;;0.93;0.87;;;18.20;43.40;;;;;;5022289;28;20622;-68
2023/01/06 05:03:38;;;;;;;1.00;0.90;;;18.20;43.40;;;;;;5022613;28;20525;-74
2023/01/06 05:06:09;;;;;;;0.90;0.80;;;18.20;43.40;;;;;;5021878;28;20423;-67
2023/01/06 05:08:36;;;;;;;0.93;0.90;;;18.20;43.30;;;;;;5022016;28;20478;-67
2023/01/06 05:11:08;;;;;;;0.80;0.77;;;18.20;43.20;;;;;;5020129;28;20804;-70
2023/01/06 05:13:34;;;;;;;1.00;0.90;;;18.30;43.20;;;;;;5018931;28;20469;-67
2023/01/06 05:16:00;;;;;;;1.00;0.73;;;18.30;43.30;;;;;;5020200;28;20436;-74
2023/01/06 05:18:25;;;;;;;1.00;0.90;;;18.30;43.20;;;;;;5018654;28;20219;-68
2023/01/06 05:20:52;;;;;;;0.90;0.80;;;18.30;43.30;;;;;;5018398;28;20222;-74
2023/01/06 05:23:18;;;;;;;0.73;0.70;;;18.30;43.20;;;;;;5019221;28;20223;-68
2023/01/06 05:25:44;;;;;;;0.80;0.73;;;18.30;43.20;;;;;;5000524;28;20426;-70
2023/01/06 05:28:09;;;;;;;1.40;0.90;;;18.30;43.20;;;;;;5022594;28;20432;-69
2023/01/06 05:30:35;;;;;;;0.80;0.80;;;18.30;43.20;;;;;;5000853;28;20706;-67
2023/01/06 05:33:00;;;;;;;0.73;0.70;;;18.30;43.20;;;;;;5020275;28;20246;-67
2023/01/06 05:35:26;;;;;;;0.83;0.80;;;18.30;43.20;;;;;;5019355;28;20227;-70
2023/01/06 05:37:55;;;;;;;0.90;0.80;;;18.30;43.20;;;;;;5018055;28;20215;-68
2023/01/06 05:40:21;;;;;;;1.10;0.90;;;18.30;43.20;;;;;;5020912;28;21025;-69
2023/01/06 05:42:46;;;;;;;1.97;0.80;;;18.30;43.20;;;;;;5021594;28;20432;-71
2023/01/06 05:45:12;;;;;;;0.90;0.70;;;18.30;43.20;;;;;;5021264;28;20207;-71
2023/01/06 05:47:38;;;;;;;0.90;0.80;;;18.30;43.20;;;;;;5020533;28;20230;-69
2023/01/06 05:50:04;;;;;;;0.80;0.80;;;18.30;43.20;;;;;;5019015;28;20265;-68
2023/01/06 05:52:29;;;;;;;0.80;0.80;;;18.30;43.20;;;;;;5015827;28;20235;-69
2023/01/06 05:54:55;;;;;;;1.00;0.70;;;18.30;43.20;;;;;;5018965;28;20455;-68
2023/01/06 05:57:20;;;;;;;0.80;0.70;;;18.30;43.20;;;;;;5019894;28;20218;-68
2023/01/06 05:59:46;;;;;;;0.67;0.67;;;18.30;43.20;;;;;;5021978;28;20309;-71
2023/01/06 06:02:11;;;;;;;0.80;0.70;;;18.30;43.20;;;;;;5019907;28;20237;-69
2023/01/06 06:04:37;;;;;;;0.70;0.70;;;18.30;43.20;;;;;;5019913;28;20246;-72
2023/01/06 06:07:02;;;;;;;0.80;0.77;;;18.30;43.20;;;;;;5020033;28;20250;-68
2023/01/06 06:09:28;;;;;;;0.70;0.70;;;18.30;43.20;;;;;;5020747;28;20223;-70
2023/01/06 06:11:54;;;;;;;1.10;0.80;;;18.30;43.20;;;;;;5018563;28;20245;-68
2023/01/06 06:14:20;;;;;;;0.77;0.70;;;18.30;43.20;;;;;;5019660;28;20431;-69
2023/01/06 06:16:46;;;;;;;0.80;0.80;;;18.30;43.20;;;;;;5019642;28;20222;-67
2023/01/06 06:19:12;;;;;;;0.90;0.80;;;18.40;43.30;;;;;;5020537;28;20223;-68
2023/01/06 06:21:38;;;;;;;0.63;0.60;;;18.40;43.30;;;;;;5016212;28;20215;-68
2023/01/06 06:24:04;;;;;;;0.70;0.70;;;18.40;43.30;;;;;;5018150;28;20518;-67
2023/01/06 06:26:29;;;;;;;0.70;0.70;;;18.30;43.20;;;;;;5014928;28;20242;-68
2023/01/06 06:28:55;;;;;;;1.00;0.77;;;18.40;43.30;;;;;;5018802;28;20284;-66
2023/01/06 06:31:24;;;;;;;1.10;0.70;;;18.40;43.30;;;;;;5019535;28;20250;-67
2023/01/06 06:33:51;;;;;;;0.73;0.60;;;18.40;43.30;;;;;;5016329;28;20234;-65
2023/01/06 06:36:16;;;;;;;0.80;0.80;;;18.40;43.30;;;;;;5017595;28;20453;-68
2023/01/06 06:38:43;;;;;;;0.90;0.70;;;18.40;43.30;;;;;;5015627;28;20465;-66
2023/01/06 06:41:09;;;;;;;0.70;0.70;;;18.40;43.30;;;;;;5018793;28;20710;-68
2023/01/06 06:43:35;;;;;;;0.70;0.70;;;18.40;43.30;;;;;;5017573;28;20426;-69
2023/01/06 06:46:00;;;;;;;0.70;0.60;;;18.40;43.20;;;;;;5017110;28;20218;-68
2023/01/06 06:48:29;;;;;;;0.70;0.60;;;18.40;43.20;;;;;;5017127;28;20223;-67
2023/01/06 06:51:06;;;;;;;1.03;0.70;;;18.40;43.30;;;;;;5016484;28;20266;-69
2023/01/06 06:53:33;;;;;;;0.80;0.70;;;18.40;43.30;;;;;;5017868;28;20955;-69
2023/01/06 06:55:59;;;;;;;1.43;0.80;;;18.40;43.30;;;;;;5019125;28;20478;-71
2023/01/06 06:58:25;;;;;;;0.70;0.70;;;18.40;43.30;;;;;;5015540;28;20468;-70
2023/01/06 07:00:51;;;;;;;0.77;0.60;;;18.40;43.30;;;;;;5018806;28;20908;-70
2023/01/06 07:03:17;;;;;;;0.73;0.70;;;18.40;44.10;;;;;;5017915;28;20427;-67
2023/01/06 07:05:44;;;;;;;1.00;0.90;;;18.40;43.30;;;;;;5020172;28;20240;-65
2023/01/06 07:08:11;;;;;;;1.00;0.90;;;18.40;43.30;;;;;;5017537;28;20422;-65
2023/01/06 07:10:37;;;;;;;0.70;0.70;;;18.40;43.30;;;;;;5016368;28;20418;-70
2023/01/06 07:15:35;;;;;;;0.70;0.60;;;18.40;43.30;;;;;;5014449;27;20559;-72
2023/01/06 07:18:05;;;;;;;0.80;0.60;;;18.40;43.30;;;;;;5010510;28;20442;-65
2023/01/06 07:20:33;;;;;;;0.80;0.60;;;18.40;43.20;;;;;;5008441;28;20963;-65
2023/01/06 07:22:58;;;;;;;0.70;0.70;;;18.40;43.30;;;;;;5012734;28;20434;-64
2023/01/06 07:25:24;;;;;;;0.70;0.63;;;18.40;43.20;;;;;;5009607;28;20431;-68
2023/01/06 07:27:54;;;;;;;0.70;0.70;;;18.40;43.30;;;;;;5010526;28;20219;-68
2023/01/06 07:30:20;;;;;;;0.90;0.70;;;18.40;43.30;;;;;;5006778;28;20261;-68
2023/01/06 07:32:46;;;;;;;0.90;0.70;;;18.40;43.30;;;;;;5011669;28;20459;-66
2023/01/06 07:35:12;;;;;;;0.80;0.77;;;18.40;43.20;;;;;;5008585;28;21101;-70
2023/01/06 07:37:37;;;;;;;0.70;0.70;;;18.40;43.30;;;;;;5007182;28;20697;-67
2023/01/06 07:40:03;;;;;;;0.87;0.80;;;18.40;43.30;;;;;;5007648;28;20225;-65
2023/01/06 07:42:28;;;;;;;0.70;0.60;;;18.40;43.30;;;;;;5004324;28;20223;-70
2023/01/06 07:44:54;;;;;;;7.03;1.27;;;18.40;43.30;;;;;;5006803;28;20230;-69
2023/01/06 07:47:19;;;;;;;0.90;0.80;;;18.40;43.30;;;;;;5003922;28;20226;-68
2023/01/06 07:49:45;;;;;;;0.73;0.60;;;18.40;43.30;;;;;;5001669;28;20219;-66
2023/01/06 07:52:11;;;;;;;1.00;0.60;;;18.40;43.20;;;;;;5004269;28;20296;-64
2023/01/06 07:54:36;;;;;;;0.80;0.70;;;18.40;43.20;;;;;;5012169;28;20297;-67
2023/01/06 07:57:02;;;;;;;0.87;0.87;;;18.40;43.30;;;;;;5010344;28;20683;-65
2023/01/06 07:59:27;;;;;;;0.70;0.60;;;18.40;43.30;;;;;;4979019;28;21032;-64
2023/01/06 08:01:54;;;;;;;1.07;1.00;;;18.40;43.30;;;;;;5007835;28;20214;-68
2023/01/06 08:04:19;;;;;;;0.70;0.60;;;18.50;43.40;;;;;;5012385;28;20318;-68
2023/01/06 08:06:45;;;;;;;5.50;0.90;;;18.50;43.40;;;;;;5007468;28;20495;-65
2023/01/06 08:09:10;;;;;;;0.80;0.70;;;18.50;43.40;;;;;;5008166;28;20257;-65
2023/01/06 08:11:36;;;;;;;0.70;0.70;;;18.60;43.50;;;;;;4997288;28;20241;-65
2023/01/06 08:14:02;;;;;;;0.77;0.63;;;18.60;43.50;;;;;;5006594;28;20245;-68
2023/01/06 08:16:27;;;;;;;0.90;0.83;;;18.60;43.80;;;;;;5002561;28;20229;-70
2023/01/06 08:18:53;;;;;;;0.60;0.60;;;18.60;43.50;;;;;;4995785;28;20298;-67
2023/01/06 08:21:18;;;;;;;1.00;0.80;;;18.60;43.50;;;;;;5001268;28;20215;-64
2023/01/06 08:23:44;;;;;;;1.00;0.77;;;18.60;43.50;;;;;;4996456;28;20613;-65
2023/01/06 08:26:12;;;;;;;16.43;3.80;;;18.60;43.50;;;;;;4989784;28;20219;-66
2023/01/06 08:28:38;;;;;;;1.20;0.90;;;18.60;43.50;;;;;;4991852;28;20234;-67
2023/01/06 08:31:11;;;;;;;0.77;0.70;;;18.60;43.50;;;;;;4993552;28;20439;-66
2023/01/06 08:33:37;;;;;;;1.27;0.70;;;18.60;43.50;;;;;;4986978;28;20988;-68
2023/01/06 08:36:05;;;;;;;0.80;0.70;;;18.60;43.40;;;;;;4986438;28;20530;-65
2023/01/06 08:38:32;;;;;;;0.70;0.60;;;18.50;43.40;;;;;;4992044;28;20227;-65
2023/01/06 08:40:59;;;;;;;1.20;0.60;;;18.50;43.40;;;;;;4989257;28;20574;-71
2023/01/06 08:43:25;;;;;;;1.23;0.70;;;18.50;43.40;;;;;;4983258;28;20524;-64
2023/01/06 08:45:51;;;;;;;0.90;0.73;;;18.50;43.30;;;;;;4985107;28;20451;-64
2023/01/06 08:48:17;;;;;;;0.80;0.60;;;18.50;43.40;;;;;;4992166;28;20542;-65
2023/01/06 08:50:43;;;;;;;1.00;0.80;;;18.50;43.40;;;;;;4985613;28;20452;-68
2023/01/06 08:53:10;;;;;;;0.70;0.60;;;18.50;43.30;;;;;;4985314;28;20423;-64
2023/01/06 08:55:40;;;;;;;0.90;0.70;;;18.50;43.40;;;;;;4989032;28;20802;-72
2023/01/06 08:58:07;;;;;;;0.70;0.60;;;18.50;43.40;;;;;;4985996;28;20428;-70
2023/01/06 09:00:33;;;;;;;0.83;0.73;;;18.50;43.40;;;;;;4994225;28;21015;-63
2023/01/06 09:02:59;;;;;;;0.80;0.67;;;18.50;43.40;;;;;;4988204;28;20501;-71
2023/01/06 09:05:24;;;;;;;0.70;0.70;;;18.50;43.30;;;;;;4992041;28;20219;-65
2023/01/06 09:07:50;;;;;;;1.00;0.90;;;18.50;43.40;;;;;;4990853;28;20223;-62
2023/01/06 09:10:17;;;;;;;0.70;0.70;;;18.50;43.40;;;;;;4992500;28;20756;-64
2023/01/06 09:12:43;;;;;;;0.87;0.70;;;18.50;43.40;;;;;;4991596;28;20247;-69
2023/01/06 09:15:09;;;;;;;0.77;0.67;;;18.50;43.40;;;;;;4984066;28;20566;-72
2023/01/06 09:17:34;;;;;;;0.80;0.70;;;18.50;43.40;;;;;;4974885;28;20232;-70
2023/01/06 09:20:00;;;;;;;1.10;0.70;;;18.50;43.40;;;;;;4983562;28;20683;-67
2023/01/06 09:22:26;;;;;;;0.90;0.70;;;18.50;43.40;;;;;;4980702;28;20223;-69
2023/01/06 09:24:51;;;;;;;1.70;0.70;;;18.50;43.40;;;;;;4972133;28;20225;-70
2023/01/06 09:27:17;;;;;;;7.30;1.70;;;18.50;43.30;;;;;;4987486;28;20229;-68
2023/01/06 09:29:42;;;;;;;9.53;1.67;;;18.50;43.40;;;;;;4986122;28;20231;-70
2023/01/06 09:32:08;;;;;;;14.10;3.60;;;18.50;43.40;;;;;;4988059;28;20231;-69
2023/01/06 09:34:34;;;;;;;3.97;1.37;;;18.50;43.40;;;;;;4992917;28;20315;-69
2023/01/06 09:36:59;;;;;;;4.10;1.47;;;18.50;43.40;;;;;;4976216;28;20232;-70
2023/01/06 09:39:26;;;;;;;3.00;2.23;;;18.50;43.40;;;;;;4988237;28;20660;-69
2023/01/06 09:42:13;;;;;;;3.27;1.50;;;18.50;43.30;;;;;;4986672;28;20227;-69
2023/01/06 09:44:48;;;;;;;17.43;1.73;;;18.50;43.40;;;;;;4984238;28;20435;-68
2023/01/06 09:47:18;;;;;;;4.60;1.90;;;18.50;43.30;;;;;;4988934;28;20460;-69
2023/01/06 09:50:13;;;;;;;2.50;1.57;;;18.40;43.30;;;;;;4986232;28;20413;-71
2023/01/06 09:52:48;;;;;;;3.67;1.40;;;18.40;43.30;;;;;;4985292;28;20431;-70
2023/01/06 09:55:32;;;;;;;4.73;1.40;;;18.40;43.30;;;;;;4985948;28;20427;-70
2023/01/06 09:58:04;;;;;;;4.67;1.10;;;18.40;43.30;;;;;;4977495;28;20455;-71
2023/01/06 10:00:35;;;;;;;3.47;1.40;;;18.40;43.30;;;;;;4987294;28;20504;-70
2023/01/06 10:03:01;;;;;;;2.70;1.33;;;18.40;43.30;;;;;;4988396;28;20433;-69
2023/01/06 10:05:51;;;;;;;1.70;1.13;;;18.40;43.30;;;;;;4988266;28;20472;-69
2023/01/06 10:08:26;;;;;;;2.93;1.87;;;18.40;43.30;;;;;;4980064;28;20219;-69
2023/01/06 10:11:10;;;;;;;17.17;3.67;;;18.40;43.30;;;;;;4990173;28;21774;-71
2023/01/06 10:14:06;;;;;;;10.97;3.80;;;18.50;43.40;;;;;;4983250;28;20453;-68
2023/01/06 10:16:53;;;;;;;14.30;5.00;;;18.50;43.40;;;;;;4983975;28;20532;-68
2023/01/06 10:19:51;;;;;;;20.97;6.90;;;18.50;43.40;;;;;;4983837;28;20459;-69
2023/01/06 10:22:42;;;;;;;36.07;10.00;;;18.60;43.40;;;;;;4988637;28;20448;-68
2023/01/06 10:25:33;;;;;;;53.33;12.60;;;18.60;43.50;;;;;;4989000;28;20452;-68
2023/01/06 10:27:58;;;;;;;33.13;8.63;;;18.70;43.60;;;;;;4983936;28;20612;-68
2023/01/06 10:30:37;;;;;;;23.33;8.73;;;18.70;43.60;;;;;;4978869;28;20462;-67
2023/01/06 10:33:04;;;;;;;10.80;5.00;;;18.70;43.50;;;;;;4974281;28;21074;-67
2023/01/06 10:35:31;;;;;;;15.27;5.67;;;18.70;43.60;;;;;;4984277;28;20481;-68
2023/01/06 10:38:01;;;;;;;14.27;5.70;;;18.80;43.60;;;;;;4990532;28;20428;-68
2023/01/06 10:40:29;;;;;;;5.50;4.07;;;18.80;43.60;;;;;;4991572;28;20443;-68
2023/01/06 10:43:02;;;;;;;10.50;3.63;;;18.90;43.70;;;;;;4990883;28;20465;-68
2023/01/06 10:45:31;;;;;;;8.77;3.83;;;18.90;43.70;;;;;;4992942;28;20907;-67
2023/01/06 10:47:59;;;;;;;8.00;3.30;;;18.90;43.70;;;;;;4984881;28;20428;-69
2023/01/06 10:50:25;;;;;;;5.47;2.57;;;19.00;43.90;;;;;;4990176;28;20552;-67
2023/01/06 10:52:51;;;;;;;4.83;2.63;;;19.00;44.00;;;;;;4987799;28;20436;-67
2023/01/06 10:55:42;;;;;;;3.17;2.87;;;19.10;44.20;;;;;;4985027;28;20493;-69
2023/01/06 10:58:24;;;;;;;3.20;2.73;;;19.10;44.20;;;;;;4984722;28;20642;-65
2023/01/06 11:01:32;;;;;;;4.10;3.70;;;19.10;44.20;;;;;;4989132;28;20837;-70
2023/01/06 11:04:06;;;;;;;3.20;2.30;;;19.10;44.00;;;;;;4909378;28;20465;-70
2023/01/06 11:06:32;;;;;;;1.87;1.63;;;19.10;43.90;;;;;;4895470;29;20439;-71
2023/01/06 11:09:04;;;;;;;12.23;5.70;;;19.10;44.00;;;;;;4952113;28;20510;-67
2023/01/06 11:11:30;;;;;;;8.77;4.70;;;19.10;43.90;;;;;;4991681;28;20431;-66
2023/01/06 11:14:01;;;;;;;7.10;4.23;;;19.10;43.90;;;;;;4989171;28;21004;-71
2023/01/06 11:16:31;;;;;;;5.57;3.43;;;19.10;43.90;;;;;;4989001;28;20223;-67
2023/01/06 11:19:01;;;;;;;4.30;3.90;;;19.20;44.00;;;;;;4982830;28;20515;-66
2023/01/06 11:21:38;;;;;;;5.60;3.20;;;19.20;44.70;;;;;;4986226;28;21031;-73
2023/01/06 11:24:30;;;;;;;10.87;4.87;;;19.20;44.00;;;;;;4987594;28;20431;-66
2023/01/06 11:27:15;;;;;;;4.90;4.47;;;19.20;44.00;;;;;;4988899;28;21662;-70
2023/01/06 11:29:41;;;;;;;4.27;3.87;;;19.20;44.00;;;;;;4983259;28;20506;-70
2023/01/06 11:32:21;;;;;;;5.50;3.97;;;19.20;44.00;;;;;;4980718;28;20408;-70
2023/01/06 11:34:59;;;;;;;3.83;3.40;;;19.20;44.00;;;;;;4981817;28;20321;-66
2023/01/06 11:37:57;;;;;;;10.77;3.63;;;19.20;44.00;;;;;;4981702;28;20427;-67
2023/01/06 11:40:32;;;;;;;3.80;2.67;;;19.20;44.00;;;;;;4982013;28;20448;-73
2023/01/06 11:43:02;;;;;;;4.17;3.13;;;19.20;44.00;;;;;;4987601;28;20472;-69
2023/01/06 11:45:41;;;;;;;3.93;3.53;;;19.20;43.90;;;;;;4984565;28;20464;-65
2023/01/06 11:48:21;;;;;;;2.47;2.27;;;19.20;43.80;;;;;;4990133;28;20705;-66
2023/01/06 11:51:13;;;;;;;3.53;2.63;;;19.20;43.60;;;;;;4976737;28;20440;-68
2023/01/06 11:53:53;;;;;;;2.67;2.47;;;19.20;43.50;;;;;;4985646;28;20432;-65
2023/01/06 11:56:18;;;;;;;2.90;2.63;;;19.20;43.50;;;;;;4989476;28;21224;-65
2023/01/06 11:59:07;;;;;;;2.33;2.13;;;19.20;43.40;;;;;;4992412;28;20451;-65
2023/01/06 12:01:51;;;;;;;4.53;3.17;;;19.20;43.30;;;;;;4995815;28;20246;-65
2023/01/06 12:04:41;;;;;;;1.93;1.83;;;19.20;43.40;;;;;;4995032;28;20496;-65
2023/01/06 12:07:34;;;;;;;3.60;2.10;;;19.20;43.30;;;;;;4994892;28;20482;-65
2023/01/06 12:10:08;;;;;;;2.60;2.40;;;19.20;43.20;;;;;;4993248;28;20468;-66
2023/01/06 12:12:34;;;;;;;2.67;2.27;;;19.20;43.20;;;;;;4989870;28;20470;-68
2023/01/06 12:14:59;;;;;;;4.60;2.80;;;19.20;43.20;;;;;;4987468;28;20946;-66
2023/01/06 12:17:30;;;;;;;2.40;2.20;;;19.20;43.30;;;;;;4987898;28;20223;-66
2023/01/06 12:20:01;;;;;;;3.67;1.90;;;19.20;43.10;;;;;;4994474;28;20691;-72
2023/01/06 12:22:29;;;;;;;2.87;2.30;;;19.20;43.10;;;;;;4986210;28;21004;-66
2023/01/06 12:24:57;;;;;;;2.30;2.17;;;19.20;43.10;;;;;;4986855;28;20514;-71
2023/01/06 12:27:32;;;;;;;2.10;1.90;;;19.30;43.20;;;;;;4988303;28;20423;-77
2023/01/06 12:30:02;;;;;;;3.57;2.23;;;19.20;43.00;;;;;;4986433;28;20516;-71
2023/01/06 12:32:36;;;;;;;2.80;2.60;;;19.30;43.00;;;;;;4978625;28;20443;-67
2023/01/06 12:35:03;;;;;;;3.70;2.10;;;19.30;43.10;;;;;;4984241;28;20522;-65
2023/01/06 12:37:36;;;;;;;2.37;2.20;;;19.30;43.10;;;;;;4987801;28;21058;-71
2023/01/06 12:40:14;;;;;;;4.80;2.63;;;19.30;43.10;;;;;;4976055;28;20442;-67
2023/01/06 12:43:13;;;;;;;3.10;2.33;;;19.30;43.10;;;;;;4985203;28;22111;-74
2023/01/06 12:46:11;;;;;;;1.70;1.60;;;19.30;43.10;;;;;;4990847;28;20518;-73
2023/01/06 12:48:53;;;;;;;3.93;2.10;;;19.30;43.10;;;;;;4967436;28;20443;-71
2023/01/06 12:51:22;;;;;;;2.30;2.10;;;19.30;43.10;;;;;;4988140;28;20963;-67
2023/01/06 12:54:16;;;;;;;1.87;1.77;;;19.30;43.10;;;;;;4990069;28;20512;-73
2023/01/06 12:57:03;;;;;;;4.00;2.03;;;19.30;43.10;;;;;;4990703;28;20450;-65
2023/01/06 12:59:55;;;;;;;2.70;2.33;;;19.30;43.10;;;;;;4990613;28;21082;-67
2023/01/06 13:02:38;;;;;;;2.07;1.77;;;19.30;43.10;;;;;;4990110;28;20447;-68
2023/01/06 13:05:40;;;;;;;1.93;1.83;;;19.30;44.00;;;;;;4985818;28;20446;-71
2023/01/06 13:08:12;;;;;;;1.83;1.70;;;19.30;43.10;;;;;;4991567;28;20504;-71
2023/01/06 13:11:00;;;;;;;2.27;1.80;;;19.30;43.20;;;;;;4995163;28;20449;-68
2023/01/06 13:13:52;;;;;;;2.23;2.03;;;19.30;43.10;;;;;;4985607;28;20535;-69
2023/01/06 13:16:24;;;;;;;2.40;2.20;;;19.30;43.10;;;;;;4984612;28;20444;-68